Airfield :
LOGIN :

Register | Disclaimer

   EN    FR    IT 

 










Legend :    VFR   Marginal VFR   IFR   Intensive IFR   Very Intensive IFR
Visi :
Ceiling :
>= 8 km
>= 3000ft
5 to 8 km
1000 to 3000 ft
1500m to 5 km
500 to 1000 ft
800 to 1500m
200 to 500 ft
< 800m
< 200 ft
Symbols :   Thunderstorms  Fog  Heavy snow  Heavy precipitations  Wind > 20 kt
SIGMETs :     Misc.  Thunderstorms  Icing  Turbulence  Mountain Waves  Volcanic Ashes






- Airport Elevation : 1197 ft
- IATA code : SPM


ETAD - Spangdahlem Ab

CURRENT METAR :
  • 220941Z AUTO 04008KT 9999 -RA OVC009 13/13 A2994 RMK AO2 SLP126 $

EXPIRED METARs :
  • 220926Z AUTO 03008KT 9999 -RA FEW003 BKN010 OVC015 13/13 A2994 RMK AO2 SLP126 $
  • 220911Z AUTO 04012KT 9999 -RA FEW003 OVC009 13/13 A2993 RMK AO2 VIS 3600 RWY05/23 SLP123 $
  • 220856Z AUTO 05009KT 9999 -RA OVC010 13/12 A2994 RMK AO2 RAB48 SLP126 P0000 60000 T01340120 52008 $
  • 220848Z AUTO 05009KT 9999 -RA OVC010 13/12 A2994 RMK AO2 RAB48 SLP126 $
  • 220756Z AUTO 03008KT 9999 OVC011 14/12 A2993 RMK AO2 SLP121 T01380118 $
  • 220656Z AUTO 04012KT 9999 OVC012 14/12 A2992 RMK AO2 SLP116 T01360118 $

TAF AMD TAF ETAD
Valid from the 22 at 09:00 until the 23 at 10:00 UTC


220915Z 2209/2310 04010G15KT 9000 -SHRA BKN012 OVC030 QNH2991INS
TEMPO 2209/2212 SCT005 BKN008
BECMG 2213/2214 03009KT 9999 NSW BKN015 OVC020 QNH2995INS
BECMG 2301/2302 03005KT 9000 -SHRA BKN015 OVC020 QNH3005INS
BECMG 2306/2307 05007KT 9999 NSW BKN015 OVC030 QNH3010INS TX16/2216Z TN14/2302Z



MET'MAP, your aeronautical weather chart ! - Copyright ORBIFLY December 2007 - Disclaimer

ORBIFLY MET'MAP TEAM :

Programming & Development : Alexandra Zaïnal
Concept & original design : Baudouin d'Aumeries
Assistance for programming : Marc-Olivier Méhu
Technical & hardware support : Manuel Goepfert

Contact : metmap@orbifly.com




SOURCES & CREDITS :

   NOAA